Ammon, Idaho
Current Conditions -  °F | °C
As of 10:53 AM on Friday 19 Dec 2014 (Local Time) from KIDA Reporting Station
Haze Haze  
Wind Chill: 35°   Ceiling: 1800
Heat Index: 35°   Visibility: 7mi
Dew Point: 31°   Wind: 0mph
Humidity: 85%   Direction: NA
Pressure: 30.13"   Gusts: NA
Location:  43.4284°N, 111.925°W
Report Text: KIDA 191753Z 00000KT 7SM HZ BKN018 BKN032 OVC045 02/M01 A3013 RMK AO2 SLP226 60001 T00171006 10017 21011 50002
Loading
Personal Weather Stations






























Interactive Weather Map New forecast layout! Learn more

10-Day Weather Forecast

Advertisements
Track Severe Weather on mobile